^^
Station Historical Data
 
Daily Summary for October 23, 2017 Units:  English    Metric   Both
« Previous Day
Next Day »
Daily Weekly Monthly Yearly Custom
  Current: High: Low: Average:
Temperature: 42.0 °F 62.7 °F 41.6 °F 51 °F
Dew Point: 32.2 °F 35.8 °F 29.9 °F 32.6 °F
Humidity: 68% 70% 31% 50%
Wind Speed: 0.0mph 17.3mph 0.0mph 4.1mph
Wind Gust: 0.0mph 17.3mph - -
WindCalm - - SSW
Pressure: 30.43 in 30.43 in 29.86 in -
Precipitation: 0.00 in      
Historical Graphs
 
 
Tabular Data for October 23, 2017
Time Temperature Dew Point Pressure Wind Wind Speed Wind Gust Humidity Rainfall Rate (Hourly) solar Conditions
00:01 47.9 °F 30.6 °F 29.96 in Calm     51% 0.00 in WeatherDisplay:10.37 W/m2 CLR
00:06 47.7 °F 30.9 °F 29.94 in South 1.2 mph 1.2 mph 52% 0.00 in WeatherDisplay:10.37 W/m2 CLR
00:11 47.8 °F 31.5 °F 29.94 in Calm     53% 0.00 in WeatherDisplay:10.37 W/m2 CLR
00:16 48.1 °F 30.8 °F 29.92 in Calm   0.1 mph 51% 0.00 in WeatherDisplay:10.37 W/m2 CLR
00:21 48.8 °F 31.0 °F 29.92 in SW 1.2 mph 1.2 mph 50% 0.00 in WeatherDisplay:10.37 W/m2 CLR
00:26 49.5 °F 31.1 °F 29.91 in SW 1.0 mph   49% 0.00 in WeatherDisplay:10.37 W/m2 CLR
00:31 50.5 °F 29.9 °F 29.92 in West 1.0 mph 1.0 mph 45% 0.00 in WeatherDisplay:10.37 W/m2 CLR
00:36 51.3 °F 31.2 °F 29.91 in West 1.0 mph   46% 0.00 in WeatherDisplay:10.37 W/m2 CLR
00:41 51.1 °F 30.5 °F 29.92 in Calm     45% 0.00 in WeatherDisplay:10.37 W/m2 CLR
00:46 50.9 °F 30.8 °F 29.92 in Calm     46% 0.00 in WeatherDisplay:10.37 W/m2 CLR
00:51 50.7 °F 30.1 °F 29.92 in Calm     45% 0.00 in WeatherDisplay:10.37 W/m2 CLR
00:56 50.2 °F 30.7 °F 29.93 in ENE 4.6 mph 4.6 mph 47% 0.00 in WeatherDisplay:10.37 W/m2 CLR
01:01 48.9 °F 31.1 °F 29.93 in ENE 1.2 mph 1.2 mph 50% 0.00 in WeatherDisplay:10.37 W/m2 CLR
01:06 48.4 °F 31.1 °F 29.91 in SSE 3.5 mph 3.5 mph 51% 0.00 in WeatherDisplay:10.37 W/m2 CLR
01:11 49.7 °F 31.3 °F 29.91 in NNW 3.5 mph 3.5 mph 49% 0.00 in WeatherDisplay:10.37 W/m2 CLR
01:16 50.0 °F 31.6 °F 29.91 in NNW 1.2 mph 1.2 mph 49% 0.00 in WeatherDisplay:10.37 W/m2 CLR
01:21 49.8 °F 30.9 °F 29.91 in Calm     48% 0.00 in WeatherDisplay:10.37 W/m2 CLR
01:26 49.7 °F 31.3 °F 29.91 in NNW 3.5 mph 3.5 mph 49% 0.00 in WeatherDisplay:10.37 W/m2 CLR
01:31 49.6 °F 31.2 °F 29.91 in Calm     49% 0.00 in WeatherDisplay:10.37 W/m2 CLR
01:36 49.5 °F 30.6 °F 29.91 in NW 1.2 mph   48% 0.00 in WeatherDisplay:10.37 W/m2 CLR
01:41 49.6 °F 31.2 °F 29.91 in Calm   0.1 mph 49% 0.00 in WeatherDisplay:10.37 W/m2 CLR
01:46 49.4 °F 31.0 °F 29.92 in Calm     49% 0.00 in WeatherDisplay:10.37 W/m2 CLR
01:51 49.2 °F 30.8 °F 29.93 in NE 1.2 mph 1.2 mph 49% 0.00 in WeatherDisplay:10.37 W/m2 CLR
01:56 49.2 °F 31.3 °F 29.93 in NE 1.2 mph 1.2 mph 50% 0.00 in WeatherDisplay:10.37 W/m2 CLR
02:01 49.3 °F 30.9 °F 29.93 in Calm     49% 0.00 in WeatherDisplay:10.37 W/m2 CLR
02:06 49.4 °F 31.0 °F 29.92 in Calm     49% 0.00 in WeatherDisplay:10.37 W/m2 CLR
02:11 49.4 °F 31.0 °F 29.92 in Calm     49% 0.00 in WeatherDisplay:10.37 W/m2 CLR
02:16 49.6 °F 31.2 °F 29.92 in Calm     49% 0.00 in WeatherDisplay:10.37 W/m2 CLR
02:21 51.4 °F 31.8 °F 29.91 in NNW 3.5 mph 3.5 mph 47% 0.00 in WeatherDisplay:10.37 W/m2 CLR
02:26 52.2 °F 30.9 °F 29.90 in NNW 1.2 mph 1.2 mph 44% 0.00 in WeatherDisplay:10.37 W/m2 CLR
02:31 52.5 °F 31.8 °F 29.89 in WNW 1.2 mph 1.2 mph 45% 0.00 in WeatherDisplay:10.37 W/m2 CLR
02:36 52.6 °F 30.7 °F 29.89 in Calm     43% 0.00 in WeatherDisplay:10.37 W/m2 CLR
02:41 53.7 °F 31.7 °F 29.90 in WNW 1.0 mph   43% 0.00 in WeatherDisplay:10.37 W/m2 CLR
02:46 54.6 °F 32.5 °F 29.89 in ESE 4.0 mph 4.0 mph 43% 0.00 in WeatherDisplay:10.37 W/m2 CLR
02:51 54.2 °F 32.2 °F 29.89 in Calm     43% 0.00 in WeatherDisplay:10.37 W/m2 CLR
02:56 53.9 °F 31.9 °F 29.89 in Calm     43% 0.00 in WeatherDisplay:10.37 W/m2 CLR
03:01 53.9 °F 31.9 °F 29.90 in North 2.3 mph 2.3 mph 43% 0.00 in WeatherDisplay:10.37 W/m2 CLR
03:06 54.5 °F 31.9 °F 29.88 in Calm     42% 0.00 in WeatherDisplay:10.37 W/m2 CLR
03:11 55.0 °F 31.7 °F 29.89 in West 1.2 mph 1.2 mph 41% 0.00 in WeatherDisplay:10.37 W/m2 CLR
03:16 55.8 °F 31.8 °F 29.87 in South 5.0 mph 5.0 mph 40% 0.00 in WeatherDisplay:10.37 W/m2 CLR
03:21 56.2 °F 32.8 °F 29.88 in NNW 2.0 mph 2.0 mph 41% 0.00 in WeatherDisplay:10.37 W/m2 CLR
03:26 56.6 °F 31.9 °F 29.88 in WNW 3.5 mph 3.5 mph 39% 0.00 in WeatherDisplay:10.37 W/m2 CLR
03:31 56.9 °F 32.2 °F 29.89 in West 1.2 mph 1.2 mph 39% 0.00 in WeatherDisplay:10.37 W/m2 CLR
03:36 57.0 °F 31.6 °F 29.89 in NNE 2.3 mph 2.3 mph 38% 0.00 in WeatherDisplay:10.37 W/m2 CLR
03:41 58.0 °F 31.2 °F 29.88 in WNW 11.5 mph 11.5 mph 36% 0.00 in WeatherDisplay:10.37 W/m2 CLR
03:46 59.0 °F 31.4 °F 29.88 in NNW 2.3 mph 2.3 mph 35% 0.00 in WeatherDisplay:10.37 W/m2 CLR
03:51 59.9 °F 32.2 °F 29.87 in West 3.5 mph 3.5 mph 35% 0.00 in WeatherDisplay:10.37 W/m2 CLR
03:56 60.4 °F 31.9 °F 29.87 in North 3.5 mph 3.7 mph 34% 0.00 in WeatherDisplay:10.37 W/m2 CLR
04:01 61.0 °F 31.7 °F 29.86 in NNW 4.6 mph 4.6 mph 33% 0.00 in WeatherDisplay:10.37 W/m2 CLR
04:06 61.5 °F 31.3 °F 29.86 in WSW 10.4 mph 10.4 mph 32% 0.00 in WeatherDisplay:10.37 W/m2 CLR
04:11 61.8 °F 31.6 °F 29.88 in SSW 5.8 mph 5.8 mph 32% 0.00 in WeatherDisplay:10.37 W/m2 CLR
04:16 62.0 °F 31.0 °F 29.87 in WSW 6.9 mph 6.9 mph 31% 0.00 in WeatherDisplay:10.37 W/m2 CLR
04:21 62.0 °F 31.0 °F 29.88 in West 12.7 mph 12.7 mph 31% 0.00 in WeatherDisplay:10.37 W/m2 CLR
04:26 62.3 °F 31.3 °F 29.87 in North 11.5 mph 11.5 mph 31% 0.00 in WeatherDisplay:10.37 W/m2 CLR
04:31 62.7 °F 31.6 °F 29.87 in NW 10.4 mph 10.4 mph 31% 0.00 in WeatherDisplay:10.37 W/m2
04:36 62.5 °F 31.4 °F 29.87 in WSW 3.5 mph 3.5 mph 31% 0.00 in WeatherDisplay:10.37 W/m2
04:41 62.3 °F 32.0 °F 29.89 in WNW 9.2 mph 9.2 mph 32% 0.00 in WeatherDisplay:10.37 W/m2 CLR
04:46 62.1 °F 31.1 °F 29.89 in NNE 3.5 mph 3.5 mph 31% 0.00 in WeatherDisplay:10.37 W/m2 CLR
04:51 62.0 °F 31.8 °F 29.90 in NW 3.5 mph 3.5 mph 32% 0.00 in WeatherDisplay:10.37 W/m2 CLR
04:56 61.6 °F 32.2 °F 29.89 in North 4.0 mph 4.0 mph 33% 0.00 in WeatherDisplay:10.37 W/m2 CLR
05:01 61.3 °F 31.9 °F 29.92 in North 4.6 mph 4.6 mph 33% 0.00 in WeatherDisplay:10.37 W/m2 CLR
05:06 61.0 °F 31.7 °F 29.92 in NNE 10.4 mph 10.4 mph 33% 0.00 in WeatherDisplay:10.37 W/m2 CLR
05:11 60.9 °F 32.3 °F 29.93 in North 5.8 mph 5.8 mph 34% 0.00 in WeatherDisplay:10.37 W/m2 CLR
05:17 60.9 °F 31.6 °F 29.94 in NNW 9.2 mph 9.2 mph 33% 0.00 in WeatherDisplay:10.37 W/m2 CLR
05:22 60.9 °F 32.3 °F 29.94 in North 4.6 mph 4.6 mph 34% 0.00 in WeatherDisplay:10.37 W/m2 CLR
05:27 60.9 °F 31.6 °F 29.94 in West 10.4 mph 10.4 mph 33% 0.00 in WeatherDisplay:10.37 W/m2 CLR
05:32 61.0 °F 31.7 °F 29.94 in North 10.4 mph 10.4 mph 33% 0.00 in WeatherDisplay:10.37 W/m2 CLR
05:37 61.1 °F 31.8 °F 29.95 in NNW 10.0 mph 10.0 mph 33% 0.00 in WeatherDisplay:10.37 W/m2 CLR
05:38 61.1 °F 31.8 °F 29.95 in North 11.5 mph 11.5 mph 33% 0.00 in WeatherDisplay:10.37 W/m2 CLR
05:43 61.0 °F 31.7 °F 29.95 in North 12.7 mph 12.7 mph 33% 0.00 in WeatherDisplay:10.37 W/m2 CLR
05:48 61.2 °F 31.8 °F 29.96 in NNW 10.4 mph 10.4 mph 33% 0.00 in WeatherDisplay:10.37 W/m2 CLR
05:53 61.2 °F 31.8 °F 29.97 in North 9.2 mph 9.2 mph 33% 0.00 in WeatherDisplay:10.37 W/m2 CLR
05:58 61.1 °F 31.8 °F 29.98 in North 9.2 mph 9.2 mph 33% 0.00 in WeatherDisplay:10.37 W/m2 CLR
06:03 58.4 °F 33.5 °F 30.03 in NE 11.5 mph 11.5 mph 39% 0.00 in WeatherDisplay:10.37 W/m2 CLR
06:08 54.2 °F 33.9 °F 30.06 in East 12.0 mph 12.0 mph 46% 0.00 in WeatherDisplay:10.37 W/m2 CLR
06:13 48.7 °F 33.7 °F 30.10 in ENE 11.5 mph 11.5 mph 56% 0.00 in WeatherDisplay:10.37 W/m2 CLR
06:18 46.8 °F 34.0 °F 30.10 in NE 17.3 mph 17.3 mph 61% 0.00 in WeatherDisplay:10.37 W/m2 CLR
06:23 45.9 °F 34.0 °F 30.11 in ENE 11.5 mph 11.5 mph 63% 0.00 in WeatherDisplay:10.37 W/m2 CLR
06:28 45.4 °F 34.3 °F 30.12 in NE 11.5 mph 11.5 mph 65% 0.00 in WeatherDisplay:10.37 W/m2 CLR
06:33 45.0 °F 33.9 °F 30.13 in East 7.0 mph 7.0 mph 65% 0.00 in WeatherDisplay:10.37 W/m2 CLR
06:38 45.0 °F 34.3 °F 30.13 in NE 10.4 mph 10.4 mph 66% 0.00 in WeatherDisplay:10.37 W/m2 CLR
06:43 44.9 °F 34.6 °F 30.13 in NE 9.2 mph 9.2 mph 67% 0.00 in WeatherDisplay:10.37 W/m2 CLR
06:48 44.8 °F 34.9 °F 30.14 in NE 9.2 mph 9.2 mph 68% 0.00 in WeatherDisplay:10.37 W/m2 CLR
06:53 44.7 °F 34.8 °F 30.14 in ENE 6.9 mph 6.9 mph 68% 0.00 in WeatherDisplay:10.37 W/m2 CLR
06:58 44.6 °F 34.7 °F 30.15 in NNE 11.5 mph 11.5 mph 68% 0.00 in WeatherDisplay:10.37 W/m2 CLR
07:03 44.5 °F 34.2 °F 30.16 in North 6.0 mph 6.0 mph 67% 0.00 in WeatherDisplay:10.37 W/m2 CLR
07:08 44.1 °F 33.5 °F 30.17 in NNE 11.0 mph 11.0 mph 66% 0.00 in WeatherDisplay:10.37 W/m2 CLR
07:13 43.8 °F 32.8 °F 30.17 in North 9.2 mph 9.2 mph 65% 0.00 in WeatherDisplay:10.37 W/m2 CLR
07:18 43.5 °F 32.1 °F 30.17 in ENE 8.0 mph 8.0 mph 64% 0.00 in WeatherDisplay:10.37 W/m2 CLR
07:23 42.9 °F 31.9 °F 30.18 in East 3.5 mph 3.5 mph 65% 0.00 in WeatherDisplay:10.37 W/m2 CLR
07:28 42.5 °F 32.3 °F 30.19 in ENE 9.2 mph 9.2 mph 67% 0.00 in WeatherDisplay:10.37 W/m2 CLR
07:33 42.1 °F 32.3 °F 30.21 in ENE 9.2 mph 9.2 mph 68% 0.00 in WeatherDisplay:10.37 W/m2 CLR
07:38 41.9 °F 32.1 °F 30.21 in East 5.8 mph 5.8 mph 68% 0.00 in WeatherDisplay:10.37 W/m2 CLR
07:43 41.8 °F 32.4 °F 30.21 in ENE 4.0 mph 4.0 mph 69% 0.00 in WeatherDisplay:10.37 W/m2 CLR
07:48 41.7 °F 32.3 °F 30.22 in ENE 6.9 mph 6.9 mph 69% 0.00 in WeatherDisplay:10.37 W/m2 CLR
07:53 41.6 °F 32.5 °F 30.22 in NNE 3.5 mph 3.5 mph 70% 0.00 in WeatherDisplay:10.37 W/m2 CLR
07:58 41.6 °F 32.2 °F 30.22 in ENE 9.2 mph 9.2 mph 69% 0.00 in WeatherDisplay:10.37 W/m2 CLR
08:03 41.6 °F 32.2 °F 30.22 in North 4.6 mph 4.6 mph 69% 0.00 in WeatherDisplay:10.37 W/m2 CLR
08:08 41.7 °F 31.5 °F 30.24 in WNW 2.3 mph 2.3 mph 67% 0.00 in WeatherDisplay:10.37 W/m2 CLR
08:13 41.9 °F 31.4 °F 30.26 in SW 4.6 mph 4.6 mph 66% 0.00 in WeatherDisplay:10.37 W/m2 CLR
08:18 42.0 °F 31.5 °F 30.27 in SSW 4.0 mph 4.0 mph 66% 0.00 in WeatherDisplay:10.37 W/m2 CLR
08:19 42.0 °F 31.5 °F 30.27 in SSW 4.6 mph 4.6 mph 66% 0.00 in WeatherDisplay:10.37 W/m2 CLR
08:24 42.1 °F 30.8 °F 30.28 in WNW 2.3 mph 2.3 mph 64% 0.00 in WeatherDisplay:10.37 W/m2 CLR
08:29 42.2 °F 30.9 °F 30.28 in West 3.5 mph 3.5 mph 64% 0.00 in WeatherDisplay:10.37 W/m2 CLR
08:34 42.4 °F 30.7 °F 30.30 in WNW 1.2 mph   63% 0.00 in WeatherDisplay:10.37 W/m2 CLR
08:39 42.6 °F 31.3 °F 30.32 in WNW 1.2 mph 1.2 mph 64% 0.00 in WeatherDisplay:10.37 W/m2 CLR
08:44 42.8 °F 30.7 °F 30.31 in NE 3.5 mph 3.5 mph 62% 0.00 in WeatherDisplay:10.37 W/m2 CLR
08:49 42.8 °F 31.1 °F 30.32 in SE 1.2 mph 1.2 mph 63% 0.00 in WeatherDisplay:10.37 W/m2 CLR
08:54 42.9 °F 30.8 °F 30.33 in SW 1.2 mph 1.2 mph 62% 0.00 in WeatherDisplay:10.37 W/m2 CLR
08:59 43.1 °F 31.0 °F 30.33 in Calm     62% 0.00 in WeatherDisplay:10.37 W/m2 CLR
09:04 43.5 °F 31.7 °F 30.34 in Calm     63% 0.00 in WeatherDisplay:10.37 W/m2 CLR
09:09 44.1 °F 31.9 °F 30.34 in SW 1.2 mph 1.2 mph 62% 0.00 in WeatherDisplay:10.37 W/m2 CLR
09:14 44.5 °F 31.1 °F 30.33 in NW 2.3 mph 2.3 mph 59% 0.00 in WeatherDisplay:10.37 W/m2 CLR
09:19 44.5 °F 31.5 °F 30.33 in West 3.5 mph 3.5 mph 60% 0.00 in WeatherDisplay:10.37 W/m2 CLR
09:24 44.9 °F 31.0 °F 30.32 in West 1.2 mph   58% 0.00 in WeatherDisplay:10.37 W/m2 CLR
09:29 45.5 °F 31.6 °F 30.33 in West 1.2 mph 1.2 mph 58% 0.00 in WeatherDisplay:10.37 W/m2 CLR
09:34 46.1 °F 32.1 °F 30.33 in SW 2.3 mph 2.3 mph 58% 0.00 in WeatherDisplay:10.37 W/m2 CLR
09:39 46.9 °F 31.6 °F 30.32 in SW 1.2 mph 1.2 mph 55% 0.00 in WeatherDisplay:10.37 W/m2 CLR
09:44 47.4 °F 31.1 °F 30.32 in WNW 1.0 mph 1.0 mph 53% 0.00 in WeatherDisplay:10.37 W/m2 CLR
09:49 47.4 °F 31.1 °F 30.32 in WNW 2.3 mph 2.3 mph 53% 0.00 in WeatherDisplay:10.37 W/m2 CLR
09:54 47.2 °F 30.9 °F 30.32 in West 1.2 mph 1.2 mph 53% 0.00 in WeatherDisplay:10.37 W/m2 CLR
09:59 47.1 °F 30.8 °F 30.32 in ENE 3.5 mph 3.5 mph 53% 0.00 in WeatherDisplay:10.37 W/m2 CLR
10:04 46.9 °F 30.6 °F 30.32 in East 1.2 mph 1.2 mph 53% 0.00 in WeatherDisplay:10.37 W/m2 CLR
10:09 46.8 °F 31.5 °F 30.32 in SE 1.2 mph 1.2 mph 55% 0.00 in WeatherDisplay:10.37 W/m2 CLR
10:14 46.8 °F 30.6 °F 30.33 in SE 3.5 mph 3.5 mph 53% 0.00 in WeatherDisplay:10.37 W/m2 CLR
10:19 46.9 °F 31.1 °F 30.33 in SE 1.2 mph 1.2 mph 54% 0.00 in WeatherDisplay:10.37 W/m2 CLR
10:24 47.2 °F 31.4 °F 30.33 in North 1.2 mph 1.2 mph 54% 0.00 in WeatherDisplay:10.37 W/m2 CLR
10:29 47.2 °F 30.5 °F 30.33 in SSE 3.5 mph 3.5 mph 52% 0.00 in WeatherDisplay:10.37 W/m2 CLR
10:34 47.3 °F 31.0 °F 30.33 in West 2.3 mph 2.3 mph 53% 0.00 in WeatherDisplay:10.37 W/m2 CLR
10:39 47.5 °F 30.7 °F 30.31 in West 1.2 mph 1.2 mph 52% 0.00 in WeatherDisplay:10.37 W/m2 CLR
10:44 47.8 °F 31.5 °F 30.32 in SSW 4.0 mph 4.0 mph 53% 0.00 in WeatherDisplay:10.37 W/m2 CLR
10:49 47.9 °F 31.1 °F 30.31 in SSE 1.2 mph 1.2 mph 52% 0.00 in WeatherDisplay:10.37 W/m2 CLR
10:54 48.4 °F 31.6 °F 30.31 in South 1.2 mph   52% 0.00 in WeatherDisplay:10.37 W/m2 CLR
10:59 48.5 °F 30.7 °F 30.32 in South 3.5 mph 3.5 mph 50% 0.00 in WeatherDisplay:10.37 W/m2 CLR
11:04 48.6 °F 32.2 °F 30.33 in SW 3.5 mph 3.5 mph 53% 0.00 in WeatherDisplay:10.37 W/m2 CLR
11:09 48.6 °F 31.8 °F 30.33 in West 3.5 mph 3.5 mph 52% 0.00 in WeatherDisplay:10.37 W/m2 CLR
11:14 48.6 °F 31.8 °F 30.33 in West 2.3 mph 2.3 mph 52% 0.00 in WeatherDisplay:10.37 W/m2 CLR
11:19 48.6 °F 32.2 °F 30.32 in WSW 3.5 mph 3.5 mph 53% 0.00 in WeatherDisplay:10.37 W/m2 CLR
11:24 48.9 °F 32.0 °F 30.31 in SSW 3.0 mph 3.0 mph 52% 0.00 in WeatherDisplay:10.37 W/m2 CLR
11:29 49.1 °F 32.7 °F 30.32 in SSW 3.5 mph 3.5 mph 53% 0.00 in WeatherDisplay:10.37 W/m2 CLR
11:34 49.2 °F 32.8 °F 30.31 in West 3.5 mph 3.5 mph 53% 0.00 in WeatherDisplay:10.37 W/m2 CLR
11:39 49.6 °F 32.7 °F 30.30 in WSW 6.9 mph 6.9 mph 52% 0.00 in WeatherDisplay:10.37 W/m2 CLR
11:44 50.3 °F 33.3 °F 30.30 in WSW 6.9 mph 6.9 mph 52% 0.00 in WeatherDisplay:10.37 W/m2 CLR
11:49 51.2 °F 34.2 °F 30.30 in WSW 3.5 mph 3.5 mph 52% 0.00 in WeatherDisplay:10.37 W/m2 CLR
11:54 51.7 °F 34.6 °F 30.29 in SSW 5.8 mph 5.8 mph 52% 0.00 in WeatherDisplay:10.37 W/m2 CLR
11:59 52.3 °F 33.7 °F 30.29 in West 3.5 mph 3.5 mph 49% 0.00 in WeatherDisplay:10.37 W/m2 CLR
12:00 52.3 °F 33.7 °F 30.29 in West 3.5 mph 3.5 mph 49% 0.00 in WeatherDisplay:10.37 W/m2 CLR
12:05 52.5 °F 33.9 °F 30.28 in SSW 5.8 mph 5.8 mph 49% 0.00 in WeatherDisplay:10.37 W/m2 CLR
12:10 52.4 °F 32.7 °F 30.28 in South 5.0 mph 5.0 mph 47% 0.00 in WeatherDisplay:10.37 W/m2 CLR
12:15 52.3 °F 33.2 °F 30.28 in SE 9.2 mph 9.2 mph 48% 0.00 in WeatherDisplay:10.37 W/m2 CLR
12:20 52.6 °F 33.5 °F 30.27 in West 3.5 mph 3.5 mph 48% 0.00 in WeatherDisplay:10.37 W/m2 CLR
12:25 52.7 °F 34.1 °F 30.27 in SSW 5.8 mph 5.8 mph 49% 0.00 in WeatherDisplay:10.37 W/m2 CLR
12:30 52.7 °F 34.6 °F 30.27 in WNW 4.6 mph 4.6 mph 50% 0.00 in WeatherDisplay:10.37 W/m2 CLR
12:35 52.5 °F 33.4 °F 30.26 in SSW 10.4 mph 10.4 mph 48% 0.00 in WeatherDisplay:10.37 W/m2 CLR
12:40 52.5 °F 35.8 °F 30.26 in West 3.5 mph 3.5 mph 53% 0.00 in WeatherDisplay:10.37 W/m2 CLR
12:45 52.9 °F 35.2 °F 30.26 in West 5.0 mph 5.0 mph 51% 0.00 in WeatherDisplay:10.37 W/m2 CLR
12:50 53.1 °F 34.9 °F 30.26 in West 5.8 mph 5.8 mph 50% 0.00 in WeatherDisplay:10.37 W/m2 CLR
12:55 53.0 °F 34.8 °F 30.26 in SW 11.5 mph 11.5 mph 50% 0.00 in WeatherDisplay:10.37 W/m2 CLR
13:00 52.7 °F 35.1 °F 30.26 in West 10.4 mph 10.4 mph 51% 0.00 in WeatherDisplay:10.37 W/m2 CLR
13:05 52.5 °F 33.4 °F 30.26 in WNW 6.9 mph 6.9 mph 48% 0.00 in WeatherDisplay:10.37 W/m2 CLR
13:10 52.4 °F 34.3 °F 30.27 in West 6.9 mph 6.9 mph 50% 0.00 in WeatherDisplay:10.37 W/m2 CLR
13:15 52.5 °F 33.9 °F 30.26 in SW 5.8 mph 5.8 mph 49% 0.00 in WeatherDisplay:10.37 W/m2 CLR
13:20 52.7 °F 34.6 °F 30.25 in SSW 5.0 mph 5.0 mph 50% 0.00 in WeatherDisplay:10.37 W/m2 CLR
13:25 52.7 °F 33.5 °F 30.25 in SSW 11.5 mph 11.5 mph 48% 0.00 in WeatherDisplay:10.37 W/m2 CLR
13:30 52.8 °F 34.7 °F 30.25 in WSW 10.4 mph 10.4 mph 50% 0.00 in WeatherDisplay:10.37 W/m2 CLR
13:35 53.0 °F 33.8 °F 30.25 in SW 8.1 mph 8.1 mph 48% 0.00 in WeatherDisplay:10.37 W/m2 CLR
13:40 52.9 °F 34.8 °F 30.25 in West 9.2 mph 9.2 mph 50% 0.00 in WeatherDisplay:10.37 W/m2 CLR
13:45 53.1 °F 34.4 °F 30.25 in WSW 5.0 mph 5.0 mph 49% 0.00 in WeatherDisplay:10.37 W/m2 CLR
13:50 53.4 °F 34.7 °F 30.25 in SSW 2.3 mph 2.3 mph 49% 0.00 in WeatherDisplay:10.37 W/m2 CLR
13:55 53.8 °F 34.6 °F 30.25 in SW 8.1 mph 8.1 mph 48% 0.00 in WeatherDisplay:10.37 W/m2 CLR
14:00 54.0 °F 34.7 °F 30.25 in SSW 2.3 mph 2.3 mph 48% 0.00 in WeatherDisplay:10.37 W/m2 CLR
14:05 54.3 °F 35.0 °F 30.22 in SW 3.5 mph 3.5 mph 48% 0.00 in WeatherDisplay:10.37 W/m2 CLR
14:10 54.2 °F 33.3 °F 30.22 in SSE 9.0 mph 9.0 mph 45% 0.00 in WeatherDisplay:10.37 W/m2 CLR
14:15 53.8 °F 34.0 °F 30.22 in WSW 4.6 mph 4.6 mph 47% 0.00 in WeatherDisplay:10.37 W/m2 CLR
14:20 54.0 °F 34.7 °F 30.22 in West 4.0 mph 4.0 mph 48% 0.00 in WeatherDisplay:10.37 W/m2 CLR
14:25 54.2 °F 34.9 °F 30.22 in SSW 5.0 mph 5.0 mph 48% 0.00 in WeatherDisplay:10.37 W/m2 CLR
14:30 54.3 °F 33.9 °F 30.22 in SW 6.9 mph 6.9 mph 46% 0.00 in WeatherDisplay:10.37 W/m2 CLR
14:40 54.5 °F 33.6 °F 30.22 in South 5.8 mph 5.8 mph 45% 0.00 in WeatherDisplay:10.37 W/m2 CLR
14:45 54.7 °F 34.8 °F 30.22 in South 3.0 mph 3.0 mph 47% 0.00 in WeatherDisplay:10.37 W/m2 CLR
14:50 54.9 °F 33.9 °F 30.22 in SW 9.2 mph 9.2 mph 45% 0.00 in WeatherDisplay:10.37 W/m2 CLR
14:55 55.1 °F 34.7 °F 30.22 in SW 5.8 mph 5.8 mph 46% 0.00 in WeatherDisplay:10.37 W/m2 CLR
15:00 55.4 °F 34.4 °F 30.22 in West 4.6 mph 4.6 mph 45% 0.00 in WeatherDisplay:10.37 W/m2 CLR
15:05 55.5 °F 34.5 °F 30.17 in SSW 6.9 mph 6.9 mph 45% 0.00 in WeatherDisplay:10.37 W/m2 CLR
15:10 55.7 °F 35.2 °F 30.18 in West 3.5 mph 3.5 mph 46% 0.00 in WeatherDisplay:10.37 W/m2 CLR
15:15 55.8 °F 33.6 °F 30.18 in SW 8.1 mph 8.1 mph 43% 0.00 in WeatherDisplay:10.37 W/m2 CLR
15:20 55.6 °F 34.0 °F 30.18 in South 4.6 mph 4.6 mph 44% 0.00 in WeatherDisplay:10.37 W/m2 CLR
15:25 55.7 °F 34.1 °F 30.18 in SW 5.8 mph 5.8 mph 44% 0.00 in WeatherDisplay:10.37 W/m2 CLR
15:30 55.8 °F 33.6 °F 30.18 in SW 4.6 mph 4.6 mph 43% 0.00 in WeatherDisplay:10.37 W/m2 CLR
15:35 55.7 °F 33.5 °F 30.18 in SW 4.0 mph 4.0 mph 43% 0.00 in WeatherDisplay:10.37 W/m2 CLR
15:40 55.7 °F 34.1 °F 30.19 in West 3.5 mph 3.5 mph 44% 0.00 in WeatherDisplay:10.37 W/m2 CLR
15:45 55.9 °F 34.8 °F 30.18 in SW 2.3 mph 2.3 mph 45% 0.00 in WeatherDisplay:10.37 W/m2 CLR
15:50 55.9 °F 34.3 °F 30.18 in SSW 3.5 mph 3.5 mph 44% 0.00 in WeatherDisplay:10.37 W/m2 CLR
15:55 55.8 °F 34.8 °F 30.18 in WSW 3.5 mph 3.5 mph 45% 0.00 in WeatherDisplay:10.37 W/m2 CLR
16:00 55.7 °F 34.1 °F 30.17 in SSW 9.2 mph 9.2 mph 44% 0.00 in WeatherDisplay:10.37 W/m2 CLR
16:05 55.6 °F 34.0 °F 30.18 in SSW 4.6 mph 4.6 mph 44% 0.00 in WeatherDisplay:10.37 W/m2 CLR
16:10 55.4 °F 33.8 °F 30.18 in West 9.2 mph 9.2 mph 44% 0.00 in WeatherDisplay:10.37 W/m2 CLR
16:15 55.0 °F 33.5 °F 30.18 in SSW 4.6 mph 4.6 mph 44% 0.00 in WeatherDisplay:10.37 W/m2 CLR
16:20 54.7 °F 33.8 °F 30.18 in SW 3.5 mph 3.5 mph 45% 0.00 in WeatherDisplay:10.37 W/m2 CLR
16:25 54.5 °F 33.6 °F 30.18 in West 4.6 mph 4.6 mph 45% 0.00 in WeatherDisplay:10.37 W/m2 CLR
16:30 54.3 °F 34.5 °F 30.19 in SSW 3.5 mph 3.5 mph 47% 0.00 in WeatherDisplay:10.37 W/m2 CLR
16:35 54.2 °F 33.9 °F 30.20 in West 4.6 mph   46% 0.00 in WeatherDisplay:10.37 W/m2 CLR
16:40 53.9 °F 34.6 °F 30.20 in SW 2.3 mph 2.3 mph 48% 0.00 in WeatherDisplay:10.37 W/m2 CLR
16:45 53.7 °F 33.9 °F 30.20 in SSW 4.6 mph 4.6 mph 47% 0.00 in WeatherDisplay:10.37 W/m2 CLR
16:50 53.6 °F 33.3 °F 30.20 in SSW 2.0 mph 2.0 mph 46% 0.00 in WeatherDisplay:10.37 W/m2 CLR
16:55 53.5 °F 33.2 °F 30.20 in SW 3.5 mph 3.5 mph 46% 0.00 in WeatherDisplay:10.37 W/m2 CLR
17:00 53.3 °F 33.0 °F 30.19 in SSW 1.2 mph 1.2 mph 46% 0.00 in WeatherDisplay:10.37 W/m2 CLR
17:05 53.2 °F 33.5 °F 30.20 in WSW 1.2 mph 1.2 mph 47% 0.00 in WeatherDisplay:10.37 W/m2 CLR
17:10 53.1 °F 33.4 °F 30.20 in WSW 1.2 mph   47% 0.00 in WeatherDisplay:10.37 W/m2 CLR
17:15 52.9 °F 33.2 °F 30.20 in WSW 2.3 mph 2.3 mph 47% 0.00 in WeatherDisplay:10.37 W/m2 CLR
17:20 52.7 °F 33.0 °F 30.19 in SSW 4.6 mph 4.6 mph 47% 0.00 in WeatherDisplay:10.37 W/m2 CLR
17:25 52.6 °F 32.9 °F 30.20 in SSW 3.5 mph 3.5 mph 47% 0.00 in WeatherDisplay:10.37 W/m2 CLR
17:30 52.4 °F 33.3 °F 30.21 in WSW 1.0 mph 1.0 mph 48% 0.00 in WeatherDisplay:10.37 W/m2 CLR
17:35 52.1 °F 33.5 °F 30.21 in WSW 1.2 mph 1.2 mph 49% 0.00 in WeatherDisplay:10.37 W/m2 CLR
17:40 51.7 °F 33.6 °F 30.22 in WSW 1.2 mph   50% 0.00 in WeatherDisplay:10.37 W/m2 CLR
17:45 51.4 °F 33.4 °F 30.22 in WSW 1.2 mph 1.2 mph 50% 0.00 in WeatherDisplay:10.37 W/m2 CLR
17:50 51.0 °F 34.0 °F 30.22 in WSW 1.2 mph   52% 0.00 in WeatherDisplay:10.37 W/m2 CLR
17:55 50.6 °F 33.6 °F 30.22 in Calm     52% 0.00 in WeatherDisplay:10.37 W/m2 CLR
18:00 50.4 °F 33.4 °F 30.24 in Calm     52% 0.00 in WeatherDisplay:10.37 W/m2 CLR
18:05 50.1 °F 33.6 °F 30.32 in WSW 1.2 mph   53% 0.00 in WeatherDisplay:10.37 W/m2 CLR
18:10 49.7 °F 33.2 °F 30.32 in Calm     53% 0.00 in WeatherDisplay:10.37 W/m2 CLR
18:15 49.4 °F 33.4 °F 30.32 in Calm     54% 0.00 in WeatherDisplay:10.37 W/m2 CLR
18:20 49.1 °F 33.2 °F 30.32 in Calm     54% 0.00 in WeatherDisplay:10.37 W/m2 CLR
18:25 48.7 °F 33.2 °F 30.33 in Calm     55% 0.00 in WeatherDisplay:10.37 W/m2 CLR
18:30 48.3 °F 33.3 °F 30.33 in Calm     56% 0.00 in WeatherDisplay:10.37 W/m2 CLR
18:35 48.1 °F 33.1 °F 30.34 in WSW 1.2 mph   56% 0.00 in WeatherDisplay:10.37 W/m2 CLR
18:40 47.9 °F 32.9 °F 30.34 in WSW 1.2 mph   56% 0.00 in WeatherDisplay:10.37 W/m2 CLR
18:45 47.6 °F 33.1 °F 30.34 in Calm     57% 0.00 in WeatherDisplay:10.37 W/m2 CLR
18:50 47.2 °F 32.7 °F 30.35 in Calm   0.2 mph 57% 0.00 in WeatherDisplay:10.37 W/m2 CLR
18:55 46.7 °F 32.7 °F 30.35 in Calm     58% 0.00 in WeatherDisplay:10.37 W/m2 CLR
19:00 46.2 °F 32.7 °F 30.36 in Calm     59% 0.00 in WeatherDisplay:10.37 W/m2 CLR
19:06 45.9 °F 32.8 °F 30.37 in Calm     60% 0.00 in WeatherDisplay:10.37 W/m2 CLR
19:11 45.5 °F 32.4 °F 30.38 in Calm     60% 0.00 in WeatherDisplay:10.37 W/m2 CLR
19:16 45.1 °F 32.4 °F 30.39 in Calm     61% 0.00 in WeatherDisplay:10.37 W/m2 CLR
19:21 45.0 °F 32.8 °F 30.40 in WSW 1.2 mph 1.2 mph 62% 0.00 in WeatherDisplay:10.37 W/m2 CLR
19:26 44.7 °F 32.5 °F 30.40 in WSW 1.2 mph   62% 0.00 in WeatherDisplay:10.37 W/m2 CLR
19:31 44.1 °F 31.5 °F 30.41 in WSW 1.2 mph 1.2 mph 61% 0.00 in WeatherDisplay:10.37 W/m2 CLR
19:36 42.8 °F 31.5 °F 30.42 in WSW 1.2 mph 1.2 mph 64% 0.00 in WeatherDisplay:10.37 W/m2 CLR
19:41 42.4 °F 31.8 °F 30.42 in Calm     66% 0.00 in WeatherDisplay:10.37 W/m2 CLR
19:46 42.2 °F 32.0 °F 30.42 in Calm     67% 0.00 in WeatherDisplay:10.37 W/m2 CLR
19:51 42.1 °F 32.3 °F 30.42 in Calm     68% 0.00 in WeatherDisplay:10.37 W/m2 CLR
19:56 42.0 °F 32.2 °F 30.43 in Calm     68% 0.00 in WeatherDisplay:10.37 W/m2 CLR
Windsor Co Weather
Compliments of Weather Underground - 2.75 mb